Time;durP1;ratioP1;P1;durP2;ratioP2;P2;SDS_P1;SDS_P2;PMS_P1;PMS_P2;Temp;Humidity;BMP_temperature;BMP_pressure;BME280_temperature;BME280_humidity;BME280_pressure;Samples;Min_cycle;Max_cycle;Signal;HPM_P1;HPM_P2
2022/12/17 18:15:06;;;;;;;10.40;6.50;;;;;;;2.42;100.00;99543.02;1791178;79;22800;-66
2022/12/17 18:17:34;;;;;;;10.18;6.40;;;;;;;2.65;100.00;99555.70;1759211;81;21036;-67
2022/12/17 18:20:00;;;;;;;14.05;7.80;;;;;;;2.82;100.00;99568.45;1764600;81;21297;-68
2022/12/17 18:22:27;;;;;;;10.43;6.25;;;;;;;3.53;100.00;99574.70;1770333;81;20961;-67
2022/12/17 18:24:54;;;;;;;7.10;5.08;;;;;;;2.07;100.00;99587.59;1725575;83;21108;-67
2022/12/17 18:27:20;;;;;;;5.95;4.08;;;;;;;2.43;100.00;99600.61;1710430;83;21097;-68
2022/12/17 18:29:46;;;;;;;9.30;5.25;;;;;;;2.47;100.00;99594.94;1710984;83;21135;-68
2022/12/17 18:32:13;;;;;;;7.33;4.92;;;;;;;2.45;100.00;99600.59;1710691;83;21593;-67
2022/12/17 18:34:39;;;;;;;5.87;4.20;;;;;;;2.60;100.00;99614.70;1710473;83;21628;-68
2022/12/17 18:37:06;;;;;;;5.50;3.80;;;;;;;2.73;100.00;99620.59;1710444;83;21073;-67
2022/12/17 18:39:32;;;;;;;5.53;3.67;;;;;;;2.63;100.00;99616.41;1710607;83;21567;-67
2022/12/17 18:44:44;;;;;;;7.83;5.65;;;;;;;2.65;100.00;99616.80;1708563;83;21270;-68
2022/12/17 18:47:10;;;;;;;8.10;4.83;;;;;;;2.79;100.00;99623.12;1725295;83;21079;-68
2022/12/17 18:49:37;;;;;;;7.08;5.00;;;;;;;2.36;100.00;99628.00;1725531;83;21231;-66
2022/12/17 18:52:05;;;;;;;8.93;6.03;;;;;;;2.22;100.00;99625.11;1725312;83;21063;-69
2022/12/17 18:54:33;;;;;;;7.30;4.97;;;;;;;2.39;100.00;99634.00;1725607;82;21004;-68
2022/12/17 18:56:59;;;;;;;12.60;7.37;;;;;;;2.22;100.00;99641.14;1725415;83;21115;-68
2022/12/17 18:59:28;;;;;;;6.65;5.37;;;;;;;2.30;100.00;99653.59;1725580;82;21127;-67
2022/12/17 19:01:59;;;;;;;16.20;9.68;;;;;;;2.69;100.00;99654.89;1725429;83;21043;-68
2022/12/17 19:04:22;;;;;;;10.78;6.70;;;;;;;3.06;100.00;99659.60;1749234;81;21241;-68
2022/12/17 19:06:52;;;;;;;7.92;5.47;;;;;;;2.99;100.00;99663.59;1766472;81;21148;-68
2022/12/17 19:09:22;;;;;;;13.13;8.00;;;;;;;3.24;100.00;99680.58;1766775;81;21133;-68
2022/12/17 19:11:49;;;;;;;;;;;;;;;3.12;100.00;99691.16;1769279;81;21512;-68
2022/12/17 19:14:16;;;;;;;15.85;10.82;;;;;;;3.21;100.00;99686.28;1766240;81;20550;-68
2022/12/17 19:16:43;;;;;;;18.27;12.80;;;;;;;3.34;100.00;99689.13;1765904;81;21069;-68
2022/12/17 19:19:10;;;;;;;17.37;11.93;;;;;;;3.36;100.00;99691.27;1764037;81;21036;-67
2022/12/17 19:21:37;;;;;;;12.00;8.78;;;;;;;3.34;100.00;99696.94;1728710;83;21119;-67
2022/12/17 19:24:07;;;;;;;6.40;5.20;;;;;;;3.20;100.00;99690.63;1728223;83;21100;-68
2022/12/17 19:26:33;;;;;;;8.78;6.80;;;;;;;3.28;100.00;99697.02;1728166;83;21053;-68
2022/12/17 19:28:59;;;;;;;14.28;11.33;;;;;;;2.89;100.00;99699.27;1727962;83;21129;-68
2022/12/17 19:31:29;;;;;;;13.13;10.18;;;;;;;3.16;100.00;99694.16;1793710;80;21504;-67
2022/12/17 19:33:57;;;;;;;10.85;8.35;;;;;;;3.23;100.00;99704.04;1728371;82;21839;-68
2022/12/17 19:36:25;;;;;;;12.60;9.40;;;;;;;3.19;100.00;99717.97;1727903;83;21091;-69
2022/12/17 19:39:00;;;;;;;7.58;6.20;;;;;;;2.94;100.00;99728.68;1728451;83;21148;-67
2022/12/17 19:41:26;;;;;;;7.53;4.58;;;;;;;3.13;100.00;99748.40;1728217;83;21089;-68
2022/12/17 19:43:57;;;;;;;4.87;4.00;;;;;;;3.01;100.00;99764.14;1728133;83;21073;-68
2022/12/17 19:46:24;;;;;;;9.10;6.33;;;;;;;3.20;100.00;99772.60;1728037;83;21884;-67
2022/12/17 19:48:50;;;;;;;8.60;6.58;;;;;;;2.83;100.00;99782.56;1728363;83;21064;-68
2022/12/17 19:51:20;;;;;;;6.30;4.87;;;;;;;2.99;100.00;99792.36;1728076;83;21088;-67
2022/12/17 19:53:46;;;;;;;10.70;7.53;;;;;;;2.99;100.00;99794.55;1728283;83;21068;-67
2022/12/17 19:56:16;;;;;;;9.63;6.97;;;;;;;2.95;100.00;99798.05;1728363;83;21068;-67
2022/12/17 19:58:44;;;;;;;16.50;11.90;;;;;;;3.09;100.00;99800.05;1728832;83;21154;-68
2022/12/17 20:01:16;;;;;;;8.93;7.03;;;;;;;3.15;100.00;99798.69;1728321;83;21096;-68
2022/12/17 20:03:42;;;;;;;4.20;3.33;;;;;;;3.37;100.00;99806.21;1793900;80;21053;-68
2022/12/17 20:06:10;;;;;;;8.68;5.45;;;;;;;3.09;100.00;99809.16;1728380;83;21104;-68
2022/12/17 20:08:37;;;;;;;9.28;5.40;;;;;;;2.98;100.00;99820.56;1728575;83;21115;-68
2022/12/17 20:14:03;;;;;;;7.92;6.20;;;;;;;3.22;100.00;99806.39;1763757;80;21088;-67
2022/12/17 20:16:34;;;;;;;8.78;6.62;;;;;;;3.16;100.00;99815.15;1748358;82;21101;-67
2022/12/17 20:19:01;;;;;;;8.90;7.15;;;;;;;2.93;100.00;99830.58;1723230;82;26523;-68
2022/12/17 20:21:28;;;;;;;4.72;3.95;;;;;;;2.92;100.00;99844.89;1722965;83;21626;-67
2022/12/17 20:23:54;;;;;;;4.95;4.17;;;;;;;3.08;100.00;99853.39;1774042;80;21192;-67
2022/12/17 20:26:21;;;;;;;4.62;3.55;;;;;;;3.09;100.00;99854.69;1723030;83;21017;-68
2022/12/17 20:28:48;;;;;;;4.60;3.30;;;;;;;2.90;100.00;99857.92;1722949;83;21083;-67
2022/12/17 20:31:15;;;;;;;4.40;4.00;;;;;;;2.88;100.00;99871.83;1722870;83;21202;-67
2022/12/17 20:33:42;;;;;;;4.92;3.70;;;;;;;3.10;100.00;99876.36;1723014;83;22118;-68
2022/12/17 20:36:14;;;;;;;4.97;3.20;;;;;;;3.09;100.00;99875.50;1723089;83;21796;-69
2022/12/17 20:38:41;;;;;;;5.53;4.12;;;;;;;3.10;100.00;99875.91;1722940;83;21061;-68
2022/12/17 20:41:21;;;;;;;3.85;3.17;;;;;;;3.10;100.00;99873.31;1722948;83;21025;-67
2022/12/17 20:43:48;;;;;;;4.03;3.52;;;;;;;3.00;100.00;99882.55;1722457;83;21600;-68
